Latest Weather Observations for Cape Moreton

IDQ60901

Issued at 12:21 pm EST Sunday 28 August 2016 (issued every 10 minutes, with the page automatically refreshed every 10 minutes)

About weather observations | Map of Brisbane area stations | Latest observations for Brisbane area | Other Formats
Station Details ID: 040043 Name: CAPE MORETON LIGHTHOUSE Lat: -27.03 Lon: 153.47 Height: 99.9 m
Data from the previous 72 hours. | See also: Recent months at Cape Moreton
Date/Time
EST
Temp
°C
App
Temp
°C
Dew
Point
°C
Rel
Hum
%
Delta-T
°C
Wind Press
QNH
hPa
Press
MSL
hPa
Rain since
9am
mm
Dir  Spd
km/h
Gust
km/h
Spd
kts
Gust
kts
28/12:00pm 19.5 16.0 10.8 57 4.7 SSE 20 26 11 14 1023.2 1023.0 0.0
28/11:30am 19.5 16.0 10.8 57 4.7 SE 20 30 11 16 1023.5 1023.3 0.0
28/11:00am 19.4 15.5 10.7 57 4.7 SSE 22 28 12 15 1023.7 1023.5 0.0
28/10:30am 19.5 16.2 10.8 57 4.7 S 19 26 10 14 1023.9 1023.7 0.0
28/10:00am 18.9 15.3 10.5 58 4.5 S 20 28 11 15 1024.0 1023.8 0.0
28/09:30am 17.9 13.8 8.7 55 4.8 S 20 28 11 15 1024.0 1023.8 0.0
28/09:00am 17.8 13.8 9.2 57 4.5 S 20 30 11 16 1023.8 1023.6 0.0
28/08:30am 17.5 14.0 8.6 56 4.6 SSW 17 28 9 15 1023.6 1023.4 0.0
28/08:00am 16.2 12.7 8.9 62 3.7 SW 17 22 9 12 1023.3 1023.1 0.0
28/07:30am 14.7 10.8 8.6 67 3.1 SW 19 22 10 12 1023.1 1022.9 0.0
28/07:00am 13.9 9.6 7.9 67 3.0 SW 20 24 11 13 1022.6 1022.5 0.0
28/06:30am 13.7 9.6 7.7 67 3.0 SSW 19 24 10 13 1022.1 1022.0 0.0
28/06:00am 13.3 8.3 8.2 71 2.5 SW 24 30 13 16 1022.0 1021.9 0.0
28/05:30am 13.3 8.0 8.4 72 2.5 SW 26 32 14 17 1021.8 1021.7 0.0
28/05:00am 13.4 8.2 8.7 73 2.4 SW 26 35 14 19 1021.2 1021.1 0.0
28/04:30am 13.4 8.2 8.7 73 2.4 SW 26 32 14 17 1021.0 1020.9 0.0
28/04:00am 13.4 8.5 8.5 72 2.5 SW 24 30 13 16 1020.8 1020.7 0.0
28/03:30am 13.5 9.1 8.8 73 2.4 SW 22 28 12 15 1020.6 1020.5 0.0
28/03:00am 13.8 9.0 8.8 72 2.5 SW 24 30 13 16 1020.6 1020.5 0.0
28/02:30am 13.8 9.4 9.0 73 2.4 SW 22 30 12 16 1020.9 1020.8 0.0
28/02:00am 14.2 9.4 8.8 70 2.7 SW 24 28 13 15 1021.3 1021.2 0.0
28/01:30am 14.4 10.4 8.4 67 3.0 SSW 19 24 10 13 1021.3 1021.2 0.0
28/01:00am 14.3 10.6 9.3 72 2.6 SSW 19 24 10 13 1021.2 1021.1 0.0
28/12:30am 14.7 10.0 9.3 70 2.8 SSW 24 28 13 15 1021.5 1021.4 0.0
28/12:00am 14.7 10.2 8.6 67 3.1 SSW 22 28 12 15 1021.5 1021.4 0.0
 
Date/Time
EST
Temp
°C
App
Temp
°C
Dew
Point
°C
Rel
Hum
%
Delta-T
°C
Wind Press
QNH
hPa
Press
MSL
hPa
Rain since
9am
mm
Dir  Spd
km/h
Gust
km/h
Spd
kts
Gust
kts
27/11:30pm 14.9 10.8 8.8 67 3.1 SSW 20 26 11 14 1021.4 1021.3 0.0
27/11:00pm 15.1 10.7 9.0 67 3.1 SSW 22 30 12 16 1021.4 1021.3 0.0
27/10:30pm 15.1 10.5 9.5 69 2.9 SSW 24 30 13 16 1021.3 1021.2 0.0
27/10:00pm 15.3 11.0 9.2 67 3.1 SSW 22 30 12 16 1021.3 1021.2 0.0
27/09:30pm 16.6 12.9 10.0 65 3.5 SSE 20 28 11 15 1021.2 1021.1 0.0
27/09:00pm 16.8 11.9 8.5 58 4.2 SE 24 32 13 17 1020.9 1020.8 0.0
27/08:30pm 16.5 12.5 9.2 62 3.8 SSE 20 30 11 16 1020.8 1020.7 0.0
27/08:00pm 16.8 14.1 7.2 53 4.8 S 11 13 6 7 1020.8 1020.7 0.0
27/07:30pm 16.8 13.7 7.2 53 4.8 SSE 13 19 7 10 1020.6 1020.5 0.0
27/07:00pm 17.1 13.0 6.0 48 5.4 SE 17 24 9 13 1020.3 1020.2 0.0
27/06:30pm 16.9 12.6 7.8 55 4.6 SE 20 24 11 13 1019.9 1019.8 0.0
27/06:00pm 16.8 12.8 5.1 46 5.6 S 15 22 8 12 1019.5 1019.3 0.0
27/05:30pm 16.9 11.9 1.4 35 6.9 WSW 17 22 9 12 1018.9 1018.7 0.0
27/05:00pm 18.1 13.2 2.0 34 7.3 WSW 17 24 9 13 1018.7 1018.5 0.0
27/04:30pm 18.7 13.6 2.9 35 7.4 SW 19 28 10 15 1018.5 1018.3 0.0
27/04:00pm 19.1 14.0 2.9 34 7.5 SW 19 30 10 16 1018.2 1018.0 0.0
27/03:30pm 19.3 14.0 3.1 34 7.6 SW 20 32 11 17 1018.0 1017.8 0.0
27/03:00pm 19.6 14.2 2.5 32 7.9 SSW 20 28 11 15 1017.9 1017.7 0.0
27/02:30pm 19.6 14.9 2.9 33 7.8 SSW 17 28 9 15 1017.9 1017.7 0.0
27/02:00pm 19.4 14.2 2.7 33 7.8 SW 19 33 10 18 1018.2 1018.0 0.0
27/01:30pm 19.2 13.8 2.6 33 7.7 SW 20 33 11 18 1018.3 1018.1 0.0
27/01:00pm 18.6 13.1 2.0 33 7.6 SW 20 30 11 16 1018.5 1018.3 0.0
27/12:30pm 19.2 15.0 3.8 36 7.3 SSW 15 26 8 14 1018.7 1018.5 0.0
27/12:00pm 18.0 13.7 3.5 38 6.8 SW 15 24 8 13 1019.1 1018.9 0.0
27/11:30am 18.4 14.4 4.9 41 6.5 SW 15 22 8 12 1019.3 1019.1 0.0
27/11:00am 17.8 13.5 5.4 44 6.0 SW 17 26 9 14 1019.5 1019.3 0.0
27/10:30am 17.7 13.6 4.3 41 6.4 SSW 15 22 8 12 1019.7 1019.6 0.0
27/10:00am 17.9 13.5 4.5 41 6.4 SSW 17 24 9 13 1020.1 1020.0 0.0
27/09:30am 17.4 13.2 3.7 40 6.4 S 15 24 8 13 1020.1 1020.0 0.0
27/09:00am 16.4 12.6 6.0 50 5.1 SW 15 22 8 12 1019.9 1019.8 0.0
27/08:30am 15.2 10.4 5.4 52 4.7 SW 20 30 11 16 1019.7 1019.6 0.0
27/08:00am 14.5 10.1 6.6 59 3.8 SW 19 26 10 14 1019.3 1019.1 0.0
27/07:30am 13.2 8.8 6.5 64 3.2 SW 19 26 10 14 1019.0 1018.8 0.0
27/07:00am 12.8 7.8 6.6 66 3.0 SW 22 28 12 15 1018.8 1018.6 0.0
27/06:30am 12.5 7.2 6.8 68 2.7 SW 24 32 13 17 1018.7 1018.5 0.0
27/06:00am 12.2 7.8 7.5 73 2.3 SW 20 28 11 15 1018.6 1018.4 0.0
27/05:30am 11.9 7.7 8.2 78 1.8 SW 20 30 11 16 1018.2 1018.0 0.0
27/05:00am 11.7 7.5 8.4 80 1.6 SW 20 26 11 14 1017.7 1017.5 0.0
27/04:30am 12.2 7.6 8.3 77 1.9 SW 22 28 12 15 1017.6 1017.4 0.0
27/04:00am 12.3 8.0 7.8 74 2.2 SW 20 26 11 14 1017.2 1017.0 0.0
27/03:30am 12.2 8.0 7.3 72 2.4 SSW 19 28 10 15 1017.1 1016.9 0.0
27/03:00am 11.7 6.6 6.0 68 2.7 SW 22 28 12 15 1017.1 1016.9 0.0
27/02:30am 11.9 6.7 5.3 64 3.1 SW 22 32 12 17 1017.2 1017.0 0.0
27/02:00am 11.9 7.1 4.9 62 3.2 SW 19 28 10 15 1017.3 1017.1 0.0
27/01:30am 12.2 6.8 4.4 59 3.6 SW 22 30 12 16 1017.1 1016.9 0.0
27/01:00am 12.4 7.3 4.1 57 3.8 SW 20 28 11 15 1017.1 1016.9 0.0
27/12:30am 12.7 6.9 4.2 56 3.9 SW 24 35 13 19 1017.0 1016.8 0.0
27/12:00am 13.1 7.3 4.3 55 4.0 WSW 24 33 13 18 1017.0 1016.8 0.0
 
Date/Time
EST
Temp
°C
App
Temp
°C
Dew
Point
°C
Rel
Hum
%
Delta-T
°C
Wind Press
QNH
hPa
Press
MSL
hPa
Rain since
9am
mm
Dir  Spd
km/h
Gust
km/h
Spd
kts
Gust
kts
26/11:30pm 13.2 6.9 3.8 53 4.3 SW 26 39 14 21 1017.0 1016.8 0.0
26/11:00pm 13.4 6.8 4.0 53 4.3 WSW 28 39 15 21 1016.8 1016.6 0.0
26/10:30pm 13.9 7.6 3.9 51 4.6 SW 26 39 14 21 1016.8 1016.6 0.0
26/10:00pm 14.0 8.1 3.8 50 4.7 SW 24 35 13 19 1016.9 1016.7 0.0
26/09:30pm 14.3 8.3 3.5 48 4.9 WSW 24 35 13 19 1016.8 1016.6 0.0
26/09:00pm 14.7 8.7 3.5 47 5.1 WSW 24 35 13 19 1016.8 1016.6 0.0
26/08:38pm 15.5 8.8 3.9 46 5.4 WSW 28 46 15 25 1016.5 1016.3 0.0
26/08:30pm 15.3 9.4 4.1 47 5.2 WSW 24 37 13 20 1016.6 1016.4 0.0
26/08:00pm 15.6 13.8 9.5 67 3.2 SW 9 9 5 5 1016.7 1016.5 0.0
26/07:30pm 16.0 15.5 7.7 58 4.2 CALM 0 0 0 0 1016.3 1016.1 0.0
26/07:00pm 15.7 14.9 8.2 61 3.8 SE 2 7 1 4 1016.0 1015.8 0.0
26/06:30pm 16.0 15.4 7.5 57 4.3 CALM 0 0 0 0 1015.7 1015.5 0.0
26/06:00pm 15.8 14.7 6.8 55 4.4 SE 2 6 1 3 1015.3 1015.1 0.0
26/05:30pm 15.9 13.5 6.9 55 4.5 WSW 9 11 5 6 1015.3 1015.1 0.0
26/05:00pm 16.4 14.2 7.9 57 4.3 SW 9 11 5 6 1015.0 1014.8 0.0
26/04:30pm 17.3 16.8 7.9 54 4.8 CALM 0 0 0 0 1014.8 1014.6 0.0
26/04:00pm 17.5 15.2 7.5 52 5.1 SE 9 13 5 7 1014.6 1014.4 0.0
26/03:30pm 17.6 15.0 7.9 53 5.0 SE 11 15 6 8 1014.3 1014.1 0.0
26/03:00pm 17.4 15.7 8.5 56 4.6 E 7 9 4 5 1014.4 1014.2 0.0
26/02:30pm 17.2 14.6 7.8 54 4.8 SE 11 17 6 9 1014.4 1014.2 0.0
26/02:00pm 18.7 16.4 8.9 53 5.1 SE 11 15 6 8 1014.5 1014.3 0.0
26/01:30pm 18.5 15.8 9.0 54 5.0 SE 13 17 7 9 1014.8 1014.6 0.0
26/01:00pm 18.9 15.5 7.7 48 5.7 SE 15 19 8 10 1014.9 1014.7 0.0
26/12:30pm 18.1 14.8 6.6 47 5.7 SE 13 20 7 11 1015.4 1015.2 0.0
26/12:00pm 18.1 15.6 6.6 47 5.7 S 9 15 5 8 1015.6 1015.4 0.0
26/11:30am 19.5 17.5 8.5 49 5.7 SSE 9 15 5 8 1016.0 1015.8 0.0
26/11:00am 18.4 15.7 7.2 48 5.7 SSE 11 17 6 9 1016.3 1016.1 0.0
26/10:30am 17.4 13.9 7.2 51 5.1 SW 15 22 8 12 1016.5 1016.3 0.0
26/10:00am 15.9 11.4 7.1 56 4.4 SW 20 30 11 16 1016.8 1016.6 0.0
26/09:30am 15.6 10.6 6.6 55 4.4 SW 22 30 12 16 1017.0 1016.8 0.0
26/09:00am 14.9 10.0 7.0 59 3.9 WSW 22 32 12 17 1017.3 1017.1 0.2
26/08:30am 14.7 10.2 7.0 60 3.8 SW 20 30 11 16 1017.5 1017.3 0.2
26/08:00am 14.0 9.6 7.3 64 3.3 SW 20 32 11 17 1017.2 1017.0 0.2
26/07:30am 13.1 8.2 7.1 67 2.9 SW 22 32 12 17 1017.0 1016.8 0.2
26/07:00am 12.2 6.9 6.7 69 2.6 SW 24 32 13 17 1016.7 1016.5 0.2
26/06:30am 11.7 5.9 6.2 69 2.6 SW 26 35 14 19 1016.2 1016.0 0.2
26/06:00am 11.7 5.5 6.0 68 2.7 SW 28 37 15 20 1015.9 1015.7 0.2
26/05:30am 11.8 5.6 6.3 69 2.6 SW 28 35 15 19 1015.5 1015.3 0.2
26/05:00am 11.8 6.1 6.5 70 2.5 SW 26 37 14 20 1015.3 1015.1 0.2
26/04:30am 11.7 6.7 6.6 71 2.4 SW 22 30 12 16 1015.3 1015.1 0.2
26/04:00am 11.9 6.1 6.4 69 2.6 SW 26 33 14 18 1015.0 1014.8 0.2
26/03:30am 12.0 6.7 6.7 70 2.5 SW 24 35 13 19 1014.7 1014.5 0.2
26/03:00am 12.1 6.4 6.6 69 2.6 SW 26 39 14 21 1014.6 1014.4 0.2
26/02:30am 12.1 6.8 6.6 69 2.6 SW 24 39 13 21 1014.7 1014.5 0.2
26/02:00am 12.5 6.4 6.5 67 2.9 SW 28 41 15 22 1014.5 1014.3 0.2
26/01:30am 12.5 6.8 6.5 67 2.9 SW 26 35 14 19 1014.6 1014.4 0.2
26/01:00am 12.5 7.1 6.5 67 2.9 SW 24 33 13 18 1014.8 1014.6 0.2
26/12:30am 12.7 7.3 6.3 65 3.1 SW 24 35 13 19 1015.0 1014.8 0.2
26/12:00am 13.2 7.4 6.1 62 3.4 SW 26 37 14 20 1015.0 1014.8 0.2
 
Date/Time
EST
Temp
°C
App
Temp
°C
Dew
Point
°C
Rel
Hum
%
Delta-T
°C
Wind Press
QNH
hPa
Press
MSL
hPa
Rain since
9am
mm
Dir  Spd
km/h
Gust
km/h
Spd
kts
Gust
kts
25/11:30pm 13.3 7.9 6.2 62 3.4 SW 24 35 13 19 1015.2 1015.0 0.2
25/11:00pm 13.5 8.8 6.1 61 3.5 SW 20 32 11 17 1015.4 1015.2 0.2
25/10:30pm 13.8 8.3 5.9 59 3.8 SW 24 35 13 19 1015.4 1015.2 0.2
25/10:00pm 13.9 9.2 6.0 59 3.8 WSW 20 33 11 18 1015.5 1015.3 0.2
25/09:30pm 14.4 8.1 5.7 56 4.2 SW 28 39 15 21 1015.3 1015.1 0.2
25/09:00pm 14.4 8.9 5.7 56 4.1 SW 24 35 13 19 1015.2 1015.0 0.2
25/08:30pm 14.5 9.0 5.8 56 4.2 SW 24 37 13 20 1015.2 1015.0 0.2
25/08:00pm 15.0 8.7 5.8 54 4.4 SW 28 39 15 21 1014.9 1014.7 0.2
25/07:30pm 15.4 9.5 5.6 52 4.7 SW 26 41 14 22 1014.6 1014.4 0.2
25/07:00pm 15.7 9.8 5.9 52 4.7 SW 26 39 14 21 1014.2 1014.0 0.2
25/06:30pm 15.8 9.9 6.0 52 4.8 SW 26 35 14 19 1013.5 1013.3 0.2
25/06:00pm 15.6 10.5 6.1 53 4.6 SW 22 30 12 16 1013.1 1012.9 0.2
25/05:30pm 16.2 11.1 6.1 51 4.9 SW 22 32 12 17 1012.4 1012.3 0.2
25/05:00pm 17.3 12.2 5.9 47 5.6 SW 22 30 12 16 1012.0 1011.9 0.2
25/04:30pm 18.5 14.2 7.0 47 5.8 SW 19 26 10 14 1011.7 1011.6 0.2
25/04:00pm 18.8 14.2 6.6 45 6.1 WSW 20 32 11 17 1011.4 1011.3 0.2
25/03:30pm 19.1 14.3 7.5 47 5.9 WSW 22 35 12 19 1011.1 1011.0 0.2
25/03:00pm 18.9 14.1 7.4 47 5.9 WSW 22 35 12 19 1010.8 1010.6 0.2
25/02:30pm 18.9 14.5 6.7 45 6.1 WSW 19 28 10 15 1010.7 1010.5 0.2
25/02:00pm 18.6 13.4 7.4 48 5.7 W 24 35 13 19 1010.6 1010.4 0.2
25/01:30pm 18.5 13.5 6.4 45 6.0 WSW 22 35 12 19 1011.0 1010.9 0.2
25/01:00pm 19.1 14.6 8.7 51 5.4 WSW 22 33 12 18 1010.9 1010.7 0.2
25/12:30pm 18.4 13.2 7.2 48 5.7 W 24 43 13 23 1011.0 1010.9 0.2

Latest Capital City Observations: Canberra | Sydney | Melbourne | Brisbane | Adelaide | Perth | Hobart | Darwin

Other Formats:

Comma delimited format used in spreadsheet applications
http://www.bom.gov.au/fwo/IDQ60901/IDQ60901.94594.axf

JavaScript Object Notation format (JSON) in row-major order
http://www.bom.gov.au/fwo/IDQ60901/IDQ60901.94594.json